createdAt,value
2019-02-11T00:00:36.939Z,3.02
2019-02-11T00:03:07.686Z,0.60
2019-02-11T00:05:36.437Z,2.67
2019-02-11T00:08:04.657Z,0.60
2019-02-11T00:10:32.931Z,0.53
2019-02-11T00:13:01.202Z,0.72
2019-02-11T00:15:29.434Z,1.20
2019-02-11T00:17:57.714Z,0.78
2019-02-11T00:20:25.933Z,1.67
2019-02-11T00:22:54.245Z,2.02
2019-02-11T00:25:22.550Z,1.67
2019-02-11T00:27:50.798Z,1.15
2019-02-11T00:30:19.050Z,1.37
2019-02-11T00:32:47.347Z,2.35
2019-02-11T00:35:15.637Z,2.40
2019-02-11T00:37:43.938Z,3.00
2019-02-11T00:40:12.173Z,2.92
2019-02-11T00:42:40.414Z,1.62
2019-02-11T00:45:09.149Z,6.15
2019-02-11T00:47:37.447Z,4.10
2019-02-11T00:50:10.836Z,1.95
2019-02-11T00:52:39.102Z,2.22
2019-02-11T00:55:07.367Z,2.47
2019-02-11T00:57:35.638Z,3.12
2019-02-11T01:00:05.371Z,2.62
2019-02-11T01:02:33.642Z,2.75
2019-02-11T01:05:02.135Z,2.65
2019-02-11T01:07:30.401Z,6.90
2019-02-11T01:10:04.370Z,2.85
2019-02-11T01:12:32.603Z,2.70
2019-02-11T01:15:00.849Z,1.80
2019-02-11T01:17:29.113Z,3.22
2019-02-11T01:19:57.390Z,2.70
2019-02-11T01:22:25.633Z,4.17
2019-02-11T01:24:53.922Z,3.08
2019-02-11T01:27:22.229Z,4.53
2019-02-11T01:29:50.480Z,3.15
2019-02-11T01:32:18.743Z,2.27
2019-02-11T01:34:47.000Z,2.87
2019-02-11T01:37:15.229Z,3.50
2019-02-11T01:39:43.503Z,4.80
2019-02-11T01:42:11.772Z,2.65
2019-02-11T01:44:59.427Z,2.60
2019-02-11T01:47:27.698Z,4.50
2019-02-11T01:49:55.934Z,5.30
2019-02-11T01:52:24.216Z,3.67
2019-02-11T01:54:52.442Z,4.03
2019-02-11T01:57:20.686Z,4.40
2019-02-11T01:59:48.944Z,5.20
2019-02-11T02:02:17.190Z,4.15
2019-02-11T02:04:45.578Z,5.90
2019-02-11T02:07:13.796Z,6.08
2019-02-11T02:09:42.039Z,4.15
2019-02-11T02:12:10.269Z,4.20
2019-02-11T02:14:38.554Z,4.37
2019-02-11T02:17:06.799Z,4.17
2019-02-11T02:19:35.072Z,3.20
2019-02-11T02:22:03.346Z,3.22
2019-02-11T02:24:31.566Z,3.37
2019-02-11T02:26:59.801Z,3.87
2019-02-11T02:29:28.078Z,3.50
2019-02-11T02:31:56.325Z,3.58
2019-02-11T02:34:24.615Z,4.33
2019-02-11T02:36:52.849Z,4.12
2019-02-11T02:39:21.117Z,3.67
2019-02-11T02:41:49.454Z,5.60
2019-02-11T02:44:17.688Z,3.35
2019-02-11T02:46:46.032Z,3.75
2019-02-11T02:49:14.278Z,5.47
2019-02-11T02:51:42.532Z,4.70
2019-02-11T02:54:10.767Z,4.67
2019-02-11T02:56:39.090Z,4.53
2019-02-11T02:59:26.830Z,6.45
2019-02-11T03:01:55.106Z,2.65
2019-02-11T03:04:23.342Z,5.75
2019-02-11T03:06:51.656Z,3.22
2019-02-11T03:09:19.929Z,2.92
2019-02-11T03:11:48.161Z,6.08
2019-02-11T03:14:16.441Z,3.02
2019-02-11T03:16:44.704Z,5.05
2019-02-11T03:19:13.046Z,3.10
2019-02-11T03:21:41.268Z,4.50
2019-02-11T03:24:09.596Z,2.75
2019-02-11T03:26:37.874Z,4.83
2019-02-11T03:29:06.179Z,5.08
2019-02-11T03:31:34.471Z,2.77
2019-02-11T03:34:02.725Z,4.70
2019-02-11T03:36:31.004Z,5.45
2019-02-11T03:38:59.261Z,5.05
2019-02-11T03:41:27.525Z,2.95
2019-02-11T03:43:57.533Z,3.20
2019-02-11T03:46:25.937Z,3.50
2019-02-11T03:48:54.179Z,6.92
2019-02-11T03:51:22.419Z,2.37
2019-02-11T03:53:50.779Z,2.58
2019-02-11T03:56:19.090Z,1.98
2019-02-11T03:58:47.369Z,1.77
2019-02-11T04:01:15.641Z,1.30
2019-02-11T04:03:43.881Z,1.87
2019-02-11T04:06:13.809Z,2.37
2019-02-11T04:08:42.072Z,1.30
2019-02-11T04:11:10.367Z,1.75
2019-02-11T04:13:38.669Z,1.80
2019-02-11T04:16:07.010Z,2.08
2019-02-11T04:18:35.271Z,2.00
2019-02-11T04:21:03.518Z,1.80
2019-02-11T04:23:31.846Z,0.72
2019-02-11T04:26:00.094Z,1.50
2019-02-11T04:28:28.375Z,1.75
2019-02-11T04:30:56.723Z,0.80
2019-02-11T04:33:24.946Z,1.15
2019-02-11T04:35:53.219Z,0.72
2019-02-11T04:38:21.446Z,2.35
2019-02-11T04:40:49.706Z,1.72
2019-02-11T04:43:17.940Z,1.95
2019-02-11T04:45:46.209Z,1.50
2019-02-11T04:48:14.439Z,2.62
2019-02-11T04:50:42.723Z,1.35
2019-02-11T04:53:30.389Z,0.72
2019-02-11T04:55:58.654Z,1.80
2019-02-11T04:58:26.904Z,1.65
2019-02-11T05:00:55.130Z,2.95
2019-02-11T05:03:23.388Z,1.72
2019-02-11T05:05:51.615Z,2.20
2019-02-11T05:08:19.886Z,2.60
2019-02-11T05:10:48.181Z,2.25
2019-02-11T05:13:20.294Z,1.80
2019-02-11T05:15:48.560Z,1.27
2019-02-11T05:18:17.105Z,1.95
2019-02-11T05:20:45.775Z,1.85
2019-02-11T05:23:14.047Z,3.17
2019-02-11T05:25:42.278Z,2.05
2019-02-11T05:28:10.522Z,2.40
2019-02-11T05:30:43.186Z,6.62
2019-02-11T05:33:11.675Z,3.83
2019-02-11T05:35:40.045Z,1.95
2019-02-11T05:38:08.301Z,2.50
2019-02-11T05:40:36.622Z,2.90
2019-02-11T05:43:04.850Z,3.25
2019-02-11T05:45:33.123Z,2.37
2019-02-11T05:48:01.346Z,1.70
2019-02-11T05:50:29.671Z,2.05
2019-02-11T05:52:57.898Z,4.00
2019-02-11T05:55:26.139Z,2.30
2019-02-11T05:57:54.382Z,1.52
2019-02-11T06:00:22.703Z,2.22
2019-02-11T06:02:50.962Z,3.37
2019-02-11T06:05:38.617Z,3.00
2019-02-11T06:08:06.874Z,3.25
2019-02-11T06:10:35.095Z,3.22
2019-02-11T06:13:03.358Z,3.37
2019-02-11T06:15:31.670Z,3.60
2019-02-11T06:17:59.962Z,4.42
2019-02-11T06:20:28.233Z,5.60
2019-02-11T06:22:56.474Z,2.98
2019-02-11T06:25:24.715Z,6.20
2019-02-11T06:27:53.042Z,4.22
2019-02-11T06:30:21.280Z,2.83
2019-02-11T06:32:49.581Z,4.67
2019-02-11T06:35:18.997Z,4.47
2019-02-11T06:37:47.307Z,4.08
2019-02-11T06:40:15.532Z,2.42
2019-02-11T06:42:43.805Z,2.62
2019-02-11T06:45:13.360Z,3.58
2019-02-11T06:47:41.895Z,3.50
2019-02-11T06:50:12.873Z,2.87
2019-02-11T06:52:41.155Z,6.15
2019-02-11T06:55:11.350Z,3.35
2019-02-11T06:57:39.645Z,4.97
2019-02-11T07:00:13.101Z,6.85
2019-02-11T07:02:41.375Z,3.52
2019-02-11T07:05:09.742Z,5.03
2019-02-11T07:07:38.069Z,6.42
2019-02-11T07:10:13.621Z,4.95
2019-02-11T07:12:41.864Z,9.45
2019-02-11T07:15:21.539Z,13.95
2019-02-11T07:17:44.183Z,5.33
2019-02-11T07:20:12.430Z,5.37
2019-02-11T07:22:40.651Z,8.45
2019-02-11T07:25:09.316Z,11.88
2019-02-11T07:27:37.532Z,11.03
2019-02-11T07:30:26.827Z,7.28
2019-02-11T07:32:55.074Z,10.40
2019-02-11T07:35:23.336Z,14.18
2019-02-11T07:37:51.568Z,12.68
2019-02-11T07:40:20.113Z,9.75
2019-02-11T07:42:50.073Z,6.95
2019-02-11T07:45:19.952Z,7.78
2019-02-11T07:47:48.217Z,17.20
2019-02-11T07:50:16.474Z,7.70
2019-02-11T07:52:44.738Z,8.28
2019-02-11T07:55:12.978Z,10.65
2019-02-11T07:57:41.266Z,8.13
2019-02-11T08:00:10.048Z,8.70
2019-02-11T08:02:38.346Z,6.17
2019-02-11T08:05:06.967Z,8.30
2019-02-11T08:07:35.253Z,8.48
2019-02-11T08:10:05.254Z,10.13
2019-02-11T08:12:33.486Z,15.70
2019-02-11T08:15:03.424Z,12.28
2019-02-11T08:17:31.678Z,8.35
2019-02-11T08:19:59.924Z,10.05
2019-02-11T08:22:28.149Z,8.95
2019-02-11T08:24:56.421Z,13.22
2019-02-11T08:27:24.645Z,9.60
2019-02-11T08:29:52.905Z,8.40
2019-02-11T08:32:40.615Z,9.78
2019-02-11T08:35:08.917Z,8.13
2019-02-11T08:37:37.184Z,7.45
2019-02-11T08:40:07.920Z,10.48
2019-02-11T08:42:36.265Z,8.93
2019-02-11T08:45:06.450Z,11.65
2019-02-11T08:47:34.725Z,9.70
2019-02-11T08:50:03.780Z,10.50
2019-02-11T08:52:32.086Z,12.75
2019-02-11T08:55:00.354Z,8.83
2019-02-11T08:57:28.596Z,9.05
2019-02-11T08:59:56.847Z,7.20
2019-02-11T09:02:25.077Z,6.12
2019-02-11T09:04:53.314Z,7.55
2019-02-11T09:07:21.557Z,10.85
2019-02-11T09:09:49.798Z,8.13
2019-02-11T09:12:18.034Z,15.65
2019-02-11T09:14:46.308Z,8.45
2019-02-11T09:17:14.553Z,12.30
2019-02-11T09:19:42.826Z,11.25
2019-02-11T09:22:11.109Z,9.20
2019-02-11T09:24:39.357Z,7.87
2019-02-11T09:27:07.620Z,10.20
2019-02-11T09:29:35.941Z,9.78
2019-02-11T09:32:04.175Z,11.05
2019-02-11T09:34:32.430Z,10.15
2019-02-11T09:37:00.653Z,4.20
2019-02-11T09:39:28.907Z,8.00
2019-02-11T09:41:57.185Z,9.53
2019-02-11T09:44:29.744Z,9.13
2019-02-11T09:46:55.418Z,12.15
2019-02-11T09:49:23.677Z,7.65
2019-02-11T09:51:52.697Z,12.43
2019-02-11T09:54:20.960Z,9.00
2019-02-11T09:56:49.233Z,6.95
2019-02-11T09:59:17.517Z,7.58
2019-02-11T10:01:45.791Z,8.15
2019-02-11T10:04:14.079Z,12.37
2019-02-11T10:06:42.325Z,6.35
2019-02-11T10:09:10.542Z,13.15
2019-02-11T10:11:38.806Z,10.13
2019-02-11T10:14:07.074Z,8.80
2019-02-11T10:16:35.350Z,10.50
2019-02-11T10:19:03.623Z,7.75
2019-02-11T10:21:31.906Z,7.70
2019-02-11T10:24:00.534Z,10.25
2019-02-11T10:26:28.862Z,10.00
2019-02-11T10:28:57.090Z,6.25
2019-02-11T10:31:25.355Z,8.53
2019-02-11T10:33:53.611Z,9.38
2019-02-11T10:36:23.282Z,9.23
2019-02-11T10:38:51.542Z,9.13
2019-02-11T10:41:19.761Z,11.18
2019-02-11T10:43:48.022Z,15.48
2019-02-11T10:46:20.996Z,8.83
2019-02-11T10:48:46.336Z,10.10
2019-02-11T10:51:14.616Z,10.78
2019-02-11T10:53:42.874Z,10.60
2019-02-11T10:56:11.138Z,10.90
2019-02-11T10:58:39.383Z,10.45
2019-02-11T11:01:07.625Z,13.28
2019-02-11T11:03:35.885Z,11.30
2019-02-11T11:06:04.131Z,13.65
2019-02-11T11:08:32.370Z,11.75
2019-02-11T11:11:00.634Z,10.53
2019-02-11T11:13:28.908Z,7.65
2019-02-11T11:15:57.134Z,9.10
2019-02-11T11:18:25.395Z,7.25
2019-02-11T11:20:53.643Z,8.80
2019-02-11T11:23:21.977Z,12.07
2019-02-11T11:25:50.247Z,10.15
2019-02-11T11:28:18.501Z,11.88
2019-02-11T11:30:46.865Z,10.43
2019-02-11T11:33:15.065Z,12.63
2019-02-11T11:35:43.341Z,7.72
2019-02-11T11:38:11.596Z,8.58
2019-02-11T11:40:39.866Z,9.43
2019-02-11T11:43:08.145Z,11.22
2019-02-11T11:45:36.421Z,13.08
2019-02-11T11:48:04.706Z,5.80
2019-02-11T11:50:32.964Z,15.20
2019-02-11T11:53:01.225Z,5.47
2019-02-11T11:55:29.477Z,8.93
2019-02-11T11:57:57.741Z,12.60
2019-02-11T12:00:31.487Z,10.30
2019-02-11T12:03:03.665Z,17.82
2019-02-11T12:05:29.920Z,8.83
2019-02-11T12:07:58.182Z,5.70
2019-02-11T12:10:26.471Z,9.43
2019-02-11T12:12:54.823Z,7.92
2019-02-11T12:15:27.402Z,10.03
2019-02-11T12:17:55.835Z,10.95
2019-02-11T12:20:24.201Z,8.40
2019-02-11T12:22:52.490Z,8.18
2019-02-11T12:25:20.859Z,12.53
2019-02-11T12:27:49.143Z,9.13
2019-02-11T12:30:22.461Z,10.45
2019-02-11T12:32:54.442Z,5.42
2019-02-11T12:35:20.771Z,8.53
2019-02-11T12:37:49.079Z,7.12
2019-02-11T12:40:17.355Z,8.78
2019-02-11T12:42:45.594Z,7.42
2019-02-11T12:45:22.546Z,7.12
2019-02-11T12:47:50.896Z,3.92
2019-02-11T12:50:19.268Z,7.53
2019-02-11T12:52:47.561Z,8.80
2019-02-11T12:55:16.948Z,8.48
2019-02-11T12:57:45.219Z,9.15
2019-02-11T13:00:23.376Z,7.22
2019-02-11T13:02:51.719Z,10.58
2019-02-11T13:05:22.752Z,7.50
2019-02-11T13:07:50.034Z,5.72
2019-02-11T13:10:39.367Z,8.60
2019-02-11T13:13:07.788Z,8.65
2019-02-11T13:15:58.991Z,4.50
2019-02-11T13:18:06.197Z,8.05
2019-02-11T13:20:34.658Z,11.68
2019-02-11T13:23:03.165Z,6.53
2019-02-11T13:25:31.559Z,9.70
2019-02-11T13:27:59.802Z,4.62
2019-02-11T13:30:28.081Z,11.03
2019-02-11T13:32:56.410Z,7.75
2019-02-11T13:35:24.746Z,8.83
2019-02-11T13:37:55.342Z,4.83
2019-02-11T13:40:23.077Z,3.62
2019-02-11T13:42:51.386Z,8.68
2019-02-11T13:45:20.769Z,5.03
2019-02-11T13:47:55.085Z,3.75
2019-02-11T13:50:22.560Z,7.67
2019-02-11T13:52:51.132Z,4.78
2019-02-11T13:55:19.397Z,6.10
2019-02-11T13:57:47.686Z,3.85
2019-02-11T14:00:20.347Z,6.17
2019-02-11T14:02:53.446Z,6.97
2019-02-11T14:05:21.830Z,5.22
2019-02-11T14:07:50.228Z,6.92
2019-02-11T14:10:18.490Z,4.87
2019-02-11T14:12:47.347Z,4.10
2019-02-11T14:15:20.039Z,7.28
2019-02-11T14:17:45.711Z,6.85
2019-02-11T14:20:21.801Z,6.67
2019-02-11T14:22:50.571Z,5.95
2019-02-11T14:25:39.238Z,2.67
2019-02-11T14:27:48.908Z,4.22
2019-02-11T14:30:22.538Z,8.75
2019-02-11T14:32:51.710Z,5.25
2019-02-11T14:35:20.874Z,6.90
2019-02-11T14:37:49.109Z,12.10
2019-02-11T14:40:17.443Z,9.78
2019-02-11T14:42:45.771Z,7.42
2019-02-11T14:45:35.196Z,6.75
2019-02-11T14:48:03.544Z,5.33
2019-02-11T14:50:32.034Z,6.85
2019-02-11T14:53:00.393Z,3.10
2019-02-11T14:55:28.795Z,9.33
2019-02-11T14:57:57.054Z,8.03
2019-02-11T15:00:25.313Z,9.40
2019-02-11T15:03:12.962Z,5.47
2019-02-11T15:05:41.257Z,8.43
2019-02-11T15:08:09.509Z,5.45
2019-02-11T15:10:37.862Z,5.95
2019-02-11T15:13:06.093Z,7.08
2019-02-11T15:15:34.375Z,16.57
2019-02-11T15:18:02.626Z,16.37
2019-02-11T15:20:30.912Z,4.83
2019-02-11T15:22:59.123Z,10.13
2019-02-11T15:25:27.545Z,7.22
2019-02-11T15:27:55.804Z,6.72
2019-02-11T15:30:25.955Z,5.42
2019-02-11T15:32:54.265Z,6.75
2019-02-11T15:35:22.529Z,6.00
2019-02-11T15:37:50.813Z,4.58
2019-02-11T15:40:21.309Z,3.45
2019-02-11T15:42:49.552Z,3.80
2019-02-11T15:45:17.841Z,7.55
2019-02-11T15:47:46.069Z,6.50
2019-02-11T15:50:16.791Z,7.25
2019-02-11T15:52:45.052Z,5.15
2019-02-11T15:55:15.786Z,4.55
2019-02-11T15:57:44.055Z,5.60
2019-02-11T16:00:14.494Z,5.45
2019-02-11T16:02:42.733Z,6.67
2019-02-11T16:05:16.129Z,9.05
2019-02-11T16:07:41.107Z,3.25
2019-02-11T16:10:37.144Z,5.35
2019-02-11T16:13:05.379Z,8.30
2019-02-11T16:15:35.398Z,5.05
2019-02-11T16:18:03.663Z,5.95
2019-02-11T16:20:31.935Z,10.10
2019-02-11T16:23:01.007Z,8.03
2019-02-11T16:25:29.230Z,3.65
2019-02-11T16:27:58.035Z,5.50
2019-02-11T16:30:26.524Z,8.83
2019-02-11T16:32:54.825Z,5.50
2019-02-11T16:35:23.137Z,6.90
2019-02-11T16:37:51.362Z,7.45
2019-02-11T16:40:25.591Z,8.78
2019-02-11T16:42:53.870Z,5.85
2019-02-11T16:45:22.177Z,9.45
2019-02-11T16:47:50.415Z,7.80
2019-02-11T16:50:18.639Z,11.10
2019-02-11T16:52:46.920Z,6.85
2019-02-11T16:55:15.173Z,7.87
2019-02-11T16:57:44.714Z,9.25
2019-02-11T17:00:19.310Z,10.43
2019-02-11T17:02:47.616Z,11.70
2019-02-11T17:05:15.825Z,8.60
2019-02-11T17:07:44.130Z,9.00
2019-02-11T17:10:15.379Z,7.95
2019-02-11T17:12:43.635Z,12.05
2019-02-11T17:15:15.158Z,7.20
2019-02-11T17:17:43.420Z,8.50
2019-02-11T17:20:13.482Z,11.18
2019-02-11T17:22:41.786Z,10.70
2019-02-11T17:25:11.085Z,9.25
2019-02-11T17:27:39.314Z,10.45
2019-02-11T17:30:22.757Z,8.53
2019-02-11T17:32:51.067Z,10.43
2019-02-11T17:35:19.334Z,17.42
2019-02-11T17:37:47.569Z,10.68
2019-02-11T17:40:15.814Z,13.18
2019-02-11T17:42:44.059Z,11.00
2019-02-11T17:45:15.158Z,10.05
2019-02-11T17:47:43.523Z,8.63
2019-02-11T17:50:11.815Z,11.45
2019-02-11T17:52:40.359Z,9.55
2019-02-11T17:55:10.739Z,9.30
2019-02-11T17:57:39.045Z,15.20
2019-02-11T18:00:12.136Z,11.43
2019-02-11T18:02:40.443Z,13.88
2019-02-11T18:05:08.778Z,12.93
2019-02-11T18:07:37.062Z,15.48
2019-02-11T18:10:24.769Z,18.27
2019-02-11T18:12:53.059Z,13.10
2019-02-11T18:15:22.674Z,14.58
2019-02-11T18:17:50.918Z,16.10
2019-02-11T18:20:19.177Z,17.12
2019-02-11T18:22:47.434Z,15.28
2019-02-11T18:25:15.659Z,17.07
2019-02-11T18:27:43.945Z,15.50
2019-02-11T18:30:16.707Z,19.10
2019-02-11T18:32:45.033Z,16.35
2019-02-11T18:35:20.530Z,15.63
2019-02-11T18:37:49.142Z,16.37
2019-02-11T18:40:17.553Z,14.13
2019-02-11T18:42:45.859Z,15.63
2019-02-11T18:45:15.423Z,16.87
2019-02-11T18:47:51.399Z,14.40
2019-02-11T18:50:19.685Z,14.05
2019-02-11T18:52:47.990Z,14.33
2019-02-11T18:55:22.093Z,17.40
2019-02-11T18:57:50.387Z,13.93
2019-02-11T19:00:19.649Z,16.73
2019-02-11T19:02:48.574Z,16.97
2019-02-11T19:05:16.992Z,12.78
2019-02-11T19:07:45.223Z,22.55
2019-02-11T19:10:15.336Z,18.52
2019-02-11T19:12:43.674Z,18.15
2019-02-11T19:15:15.258Z,15.63
2019-02-11T19:17:43.513Z,20.08
2019-02-11T19:20:13.621Z,19.27
2019-02-11T19:22:42.012Z,21.73
2019-02-11T19:25:29.753Z,17.27
2019-02-11T19:27:58.042Z,18.70
2019-02-11T19:30:27.308Z,21.37
2019-02-11T19:32:55.601Z,15.15
2019-02-11T19:35:23.857Z,19.20
2019-02-11T19:37:52.143Z,15.18
2019-02-11T19:40:20.850Z,17.67
2019-02-11T19:42:55.138Z,20.08
2019-02-11T19:45:24.162Z,13.53
2019-02-11T19:47:52.425Z,18.17
2019-02-11T19:50:20.754Z,20.92
2019-02-11T19:52:49.002Z,20.57
2019-02-11T19:55:17.764Z,13.13
2019-02-11T19:57:46.041Z,15.95
2019-02-11T20:00:18.421Z,20.72
2019-02-11T20:02:46.981Z,23.22
2019-02-11T20:05:15.575Z,20.75
2019-02-11T20:07:46.655Z,16.42
2019-02-11T20:10:23.330Z,20.05
2019-02-11T20:12:51.623Z,23.27
2019-02-11T20:15:28.173Z,15.32
2019-02-11T20:17:56.414Z,24.43
2019-02-11T20:20:26.522Z,20.68
2019-02-11T20:23:02.000Z,15.00
2019-02-11T20:25:30.311Z,16.48
2019-02-11T20:27:58.871Z,18.87
2019-02-11T20:30:31.650Z,21.68
2019-02-11T20:33:00.399Z,22.05
2019-02-11T20:35:28.694Z,21.52
2019-02-11T20:37:58.915Z,17.32
2019-02-11T20:40:29.721Z,25.80
2019-02-11T20:42:58.041Z,19.25
2019-02-11T20:45:28.444Z,17.27
2019-02-11T20:47:56.744Z,17.60
2019-02-11T20:50:25.031Z,14.25
2019-02-11T20:52:53.685Z,17.65
2019-02-11T20:55:22.045Z,17.42
2019-02-11T20:57:53.502Z,14.00
2019-02-11T21:00:23.766Z,19.92
2019-02-11T21:02:52.075Z,25.02
2019-02-11T21:05:20.402Z,16.62
2019-02-11T21:07:48.644Z,16.62
2019-02-11T21:10:18.762Z,17.45
2019-02-11T21:12:47.089Z,14.28
2019-02-11T21:15:35.134Z,17.87
2019-02-11T21:18:03.402Z,14.28
2019-02-11T21:20:43.870Z,16.73
2019-02-11T21:23:13.722Z,21.07
2019-02-11T21:25:42.047Z,12.65
2019-02-11T21:28:10.625Z,13.20
2019-02-11T21:30:39.036Z,17.30
2019-02-11T21:33:08.841Z,11.95
2019-02-11T21:35:37.206Z,25.35
2019-02-11T21:38:05.553Z,21.55
2019-02-11T21:40:33.805Z,18.67
2019-02-11T21:43:02.081Z,18.12
2019-02-11T21:45:30.318Z,20.37
2019-02-11T21:47:58.582Z,18.75
2019-02-11T21:50:27.183Z,16.60
2019-02-11T21:53:14.911Z,15.10
2019-02-11T21:55:43.182Z,14.05
2019-02-11T21:58:11.478Z,16.95
2019-02-11T22:00:39.749Z,16.87
2019-02-11T22:03:08.000Z,17.27
2019-02-11T22:05:36.254Z,16.73
2019-02-11T22:08:04.527Z,21.97
2019-02-11T22:10:32.807Z,15.83
2019-02-11T22:13:01.087Z,16.77
2019-02-11T22:15:29.341Z,19.30
2019-02-11T22:17:57.614Z,22.37
2019-02-11T22:20:25.835Z,19.42
2019-02-11T22:22:54.101Z,18.60
2019-02-11T22:25:22.342Z,18.40
2019-02-11T22:27:50.614Z,24.25
2019-02-11T22:30:24.832Z,22.70
2019-02-11T22:32:54.345Z,21.73
2019-02-11T22:35:22.602Z,21.33
2019-02-11T22:37:51.347Z,16.48
2019-02-11T22:40:19.626Z,17.95
2019-02-11T22:42:47.910Z,10.80
2019-02-11T22:45:18.472Z,20.55
2019-02-11T22:48:06.131Z,18.85
2019-02-11T22:50:43.492Z,16.12
2019-02-11T22:53:11.707Z,18.27
2019-02-11T22:55:39.983Z,17.23
2019-02-11T22:58:08.241Z,25.00
2019-02-11T23:03:20.734Z,19.77
2019-02-11T23:05:49.009Z,16.90
2019-02-11T23:08:17.235Z,20.90
2019-02-11T23:10:45.516Z,18.80
2019-02-11T23:13:13.738Z,15.53
2019-02-11T23:15:42.012Z,19.25
2019-02-11T23:18:10.246Z,25.88
2019-02-11T23:20:38.521Z,16.65
2019-02-11T23:23:06.888Z,19.48
2019-02-11T23:25:35.158Z,18.90
2019-02-11T23:28:03.459Z,17.77
2019-02-11T23:30:31.701Z,20.25
2019-02-11T23:32:59.953Z,21.25
2019-02-11T23:35:28.167Z,21.95
2019-02-11T23:37:56.418Z,22.13
2019-02-11T23:40:24.674Z,24.47
2019-02-11T23:42:52.950Z,19.00
2019-02-11T23:45:21.227Z,13.45
2019-02-11T23:47:49.461Z,17.67
2019-02-11T23:50:17.722Z,19.42
2019-02-11T23:52:45.986Z,24.25
2019-02-11T23:55:14.222Z,26.15
2019-02-11T23:57:42.498Z,27.13
